sensor_id;sensor_type;location;lat;lon;timestamp;temperature;humidity
66102;HTU21D;52883;51.094;5.880;2022-11-20T00:01:14;3.56;118.99
66102;HTU21D;52883;51.094;5.880;2022-11-20T00:03:41;3.56;118.99
66102;HTU21D;52883;51.094;5.880;2022-11-20T00:06:12;3.56;118.99
66102;HTU21D;52883;51.094;5.880;2022-11-20T00:08:38;3.55;118.99
66102;HTU21D;52883;51.094;5.880;2022-11-20T00:11:06;3.56;118.99
66102;HTU21D;52883;51.094;5.880;2022-11-20T00:13:33;3.55;118.99
66102;HTU21D;52883;51.094;5.880;2022-11-20T00:16:01;3.56;118.99
66102;HTU21D;52883;51.094;5.880;2022-11-20T00:18:27;3.53;118.99
66102;HTU21D;52883;51.094;5.880;2022-11-20T00:20:53;3.50;118.99
66102;HTU21D;52883;51.094;5.880;2022-11-20T00:23:20;3.48;118.99
66102;HTU21D;52883;51.094;5.880;2022-11-20T00:25:45;3.45;118.99
66102;HTU21D;52883;51.094;5.880;2022-11-20T00:28:11;3.42;118.99
66102;HTU21D;52883;51.094;5.880;2022-11-20T00:30:36;3.43;118.99
66102;HTU21D;52883;51.094;5.880;2022-11-20T00:33:02;3.42;118.99
66102;HTU21D;52883;51.094;5.880;2022-11-20T00:35:28;3.40;118.99
66102;HTU21D;52883;51.094;5.880;2022-11-20T00:37:53;3.42;118.99
66102;HTU21D;52883;51.094;5.880;2022-11-20T00:40:19;3.40;118.99
66102;HTU21D;52883;51.094;5.880;2022-11-20T00:42:44;3.40;118.99
66102;HTU21D;52883;51.094;5.880;2022-11-20T00:45:11;3.39;118.99
66102;HTU21D;52883;51.094;5.880;2022-11-20T00:47:36;3.41;118.99
66102;HTU21D;52883;51.094;5.880;2022-11-20T00:50:02;3.44;118.99
66102;HTU21D;52883;51.094;5.880;2022-11-20T00:52:28;3.44;118.99
66102;HTU21D;52883;51.094;5.880;2022-11-20T00:54:53;3.43;118.99
66102;HTU21D;52883;51.094;5.880;2022-11-20T00:57:19;3.44;118.99
66102;HTU21D;52883;51.094;5.880;2022-11-20T00:59:44;3.45;118.99
66102;HTU21D;52883;51.094;5.880;2022-11-20T01:02:10;3.46;118.99
66102;HTU21D;52883;51.094;5.880;2022-11-20T01:04:35;3.47;118.99
66102;HTU21D;52883;51.094;5.880;2022-11-20T01:07:01;3.45;118.99
66102;HTU21D;52883;51.094;5.880;2022-11-20T01:09:26;3.45;118.99
66102;HTU21D;52883;51.094;5.880;2022-11-20T01:11:52;3.45;118.99
66102;HTU21D;52883;51.094;5.880;2022-11-20T01:14:19;3.46;118.99
66102;HTU21D;52883;51.094;5.880;2022-11-20T01:16:48;3.47;118.99
66102;HTU21D;52883;51.094;5.880;2022-11-20T01:19:17;3.46;118.99
66102;HTU21D;52883;51.094;5.880;2022-11-20T01:21:45;3.47;118.99
66102;HTU21D;52883;51.094;5.880;2022-11-20T01:24:14;3.45;118.99
66102;HTU21D;52883;51.094;5.880;2022-11-20T01:26:43;3.45;118.99
66102;HTU21D;52883;51.094;5.880;2022-11-20T01:29:23;3.39;118.99
66102;HTU21D;52883;51.094;5.880;2022-11-20T01:31:49;3.34;118.99
66102;HTU21D;52883;51.094;5.880;2022-11-20T01:34:18;3.30;118.99
66102;HTU21D;52883;51.094;5.880;2022-11-20T01:36:46;3.29;118.99
66102;HTU21D;52883;51.094;5.880;2022-11-20T01:39:15;3.29;118.99
66102;HTU21D;52883;51.094;5.880;2022-11-20T01:41:42;3.27;118.99
66102;HTU21D;52883;51.094;5.880;2022-11-20T01:44:58;3.21;118.99
66102;HTU21D;52883;51.094;5.880;2022-11-20T01:47:42;3.06;118.99
66102;HTU21D;52883;51.094;5.880;2022-11-20T01:52:47;2.78;118.99
66102;HTU21D;52883;51.094;5.880;2022-11-20T01:55:19;2.64;118.99
66102;HTU21D;52883;51.094;5.880;2022-11-20T01:57:48;2.47;118.99
66102;HTU21D;52883;51.094;5.880;2022-11-20T02:00:17;2.32;118.99
66102;HTU21D;52883;51.094;5.880;2022-11-20T02:02:55;2.11;118.99
66102;HTU21D;52883;51.094;5.880;2022-11-20T02:05:49;1.86;118.99
66102;HTU21D;52883;51.094;5.880;2022-11-20T02:08:13;1.69;118.99
66102;HTU21D;52883;51.094;5.880;2022-11-20T02:10:39;1.57;118.99
66102;HTU21D;52883;51.094;5.880;2022-11-20T02:13:05;1.52;118.99
66102;HTU21D;52883;51.094;5.880;2022-11-20T02:15:50;1.50;118.99
66102;HTU21D;52883;51.094;5.880;2022-11-20T02:18:18;1.61;118.99
66102;HTU21D;52883;51.094;5.880;2022-11-20T02:20:48;1.76;118.99
66102;HTU21D;52883;51.094;5.880;2022-11-20T02:23:38;1.93;118.99
66102;HTU21D;52883;51.094;5.880;2022-11-20T02:26:08;2.10;118.99
66102;HTU21D;52883;51.094;5.880;2022-11-20T02:28:36;2.25;118.99
66102;HTU21D;52883;51.094;5.880;2022-11-20T02:31:02;2.39;118.99
66102;HTU21D;52883;51.094;5.880;2022-11-20T02:33:27;2.52;118.99
66102;HTU21D;52883;51.094;5.880;2022-11-20T02:35:53;2.59;118.99
66102;HTU21D;52883;51.094;5.880;2022-11-20T02:38:19;2.68;118.99
66102;HTU21D;52883;51.094;5.880;2022-11-20T02:40:45;2.73;118.99
66102;HTU21D;52883;51.094;5.880;2022-11-20T02:43:10;2.75;118.99
66102;HTU21D;52883;51.094;5.880;2022-11-20T02:45:36;2.76;118.99
66102;HTU21D;52883;51.094;5.880;2022-11-20T02:48:03;2.79;118.99
66102;HTU21D;52883;51.094;5.880;2022-11-20T02:50:29;2.82;118.99
66102;HTU21D;52883;51.094;5.880;2022-11-20T02:52:54;2.85;118.99
66102;HTU21D;52883;51.094;5.880;2022-11-20T02:55:20;2.86;118.99
66102;HTU21D;52883;51.094;5.880;2022-11-20T02:57:45;2.87;118.99
66102;HTU21D;52883;51.094;5.880;2022-11-20T03:00:11;2.87;118.99
66102;HTU21D;52883;51.094;5.880;2022-11-20T03:02:37;2.87;118.99
66102;HTU21D;52883;51.094;5.880;2022-11-20T03:05:03;2.82;118.99
66102;HTU21D;52883;51.094;5.880;2022-11-20T03:07:28;2.73;118.99
66102;HTU21D;52883;51.094;5.880;2022-11-20T03:09:54;2.64;118.99
66102;HTU21D;52883;51.094;5.880;2022-11-20T03:12:20;2.53;118.99
66102;HTU21D;52883;51.094;5.880;2022-11-20T03:14:45;2.37;118.99
66102;HTU21D;52883;51.094;5.880;2022-11-20T03:17:11;2.24;118.99
66102;HTU21D;52883;51.094;5.880;2022-11-20T03:19:37;2.19;118.99
66102;HTU21D;52883;51.094;5.880;2022-11-20T03:22:02;2.22;118.99
66102;HTU21D;52883;51.094;5.880;2022-11-20T03:24:28;2.28;118.99
66102;HTU21D;52883;51.094;5.880;2022-11-20T03:26:53;2.32;118.99
66102;HTU21D;52883;51.094;5.880;2022-11-20T03:29:25;2.40;118.99
66102;HTU21D;52883;51.094;5.880;2022-11-20T03:31:51;2.45;118.99
66102;HTU21D;52883;51.094;5.880;2022-11-20T03:34:17;2.50;118.99
66102;HTU21D;52883;51.094;5.880;2022-11-20T03:36:43;2.57;118.99
66102;HTU21D;52883;51.094;5.880;2022-11-20T03:39:09;2.59;118.99
66102;HTU21D;52883;51.094;5.880;2022-11-20T03:41:40;2.64;118.99
66102;HTU21D;52883;51.094;5.880;2022-11-20T03:44:08;2.61;118.99
66102;HTU21D;52883;51.094;5.880;2022-11-20T03:46:34;2.57;118.99
66102;HTU21D;52883;51.094;5.880;2022-11-20T03:49:00;2.54;118.99
66102;HTU21D;52883;51.094;5.880;2022-11-20T03:51:28;2.50;118.99
66102;HTU21D;52883;51.094;5.880;2022-11-20T03:53:58;2.49;118.99
66102;HTU21D;52883;51.094;5.880;2022-11-20T03:56:27;2.47;118.99
66102;HTU21D;52883;51.094;5.880;2022-11-20T03:58:53;2.52;118.99
66102;HTU21D;52883;51.094;5.880;2022-11-20T04:01:22;2.56;118.99
66102;HTU21D;52883;51.094;5.880;2022-11-20T04:03:48;2.62;118.99
66102;HTU21D;52883;51.094;5.880;2022-11-20T04:06:17;2.66;118.99
66102;HTU21D;52883;51.094;5.880;2022-11-20T04:08:44;2.67;118.99
66102;HTU21D;52883;51.094;5.880;2022-11-20T04:11:14;2.70;118.99
66102;HTU21D;52883;51.094;5.880;2022-11-20T04:13:41;2.73;118.99
66102;HTU21D;52883;51.094;5.880;2022-11-20T04:16:09;2.76;118.99
66102;HTU21D;52883;51.094;5.880;2022-11-20T04:18:35;2.80;118.99
66102;HTU21D;52883;51.094;5.880;2022-11-20T04:21:02;2.83;118.99
66102;HTU21D;52883;51.094;5.880;2022-11-20T04:23:28;2.83;118.99
66102;HTU21D;52883;51.094;5.880;2022-11-20T04:25:53;2.82;118.99
66102;HTU21D;52883;51.094;5.880;2022-11-20T04:28:19;2.81;118.99
66102;HTU21D;52883;51.094;5.880;2022-11-20T04:33:39;2.87;118.99
66102;HTU21D;52883;51.094;5.880;2022-11-20T04:36:14;2.89;118.99
66102;HTU21D;52883;51.094;5.880;2022-11-20T04:38:40;2.91;118.99
66102;HTU21D;52883;51.094;5.880;2022-11-20T04:41:17;2.94;118.99
66102;HTU21D;52883;51.094;5.880;2022-11-20T04:43:50;2.95;118.99
66102;HTU21D;52883;51.094;5.880;2022-11-20T04:46:20;2.96;118.99
66102;HTU21D;52883;51.094;5.880;2022-11-20T04:48:46;2.96;118.99
66102;HTU21D;52883;51.094;5.880;2022-11-20T04:51:12;2.96;118.99
66102;HTU21D;52883;51.094;5.880;2022-11-20T04:53:38;2.94;118.99
66102;HTU21D;52883;51.094;5.880;2022-11-20T04:56:06;2.90;118.99
66102;HTU21D;52883;51.094;5.880;2022-11-20T04:58:33;2.88;118.99
66102;HTU21D;52883;51.094;5.880;2022-11-20T05:01:08;2.89;118.99
66102;HTU21D;52883;51.094;5.880;2022-11-20T05:03:37;2.91;118.99
66102;HTU21D;52883;51.094;5.880;2022-11-20T05:06:04;2.95;118.99
66102;HTU21D;52883;51.094;5.880;2022-11-20T05:08:31;3.00;118.99
66102;HTU21D;52883;51.094;5.880;2022-11-20T05:11:07;3.02;118.99
66102;HTU21D;52883;51.094;5.880;2022-11-20T05:13:32;3.05;118.99
66102;HTU21D;52883;51.094;5.880;2022-11-20T05:16:07;3.04;118.99
66102;HTU21D;52883;51.094;5.880;2022-11-20T05:18:38;3.05;118.99
66102;HTU21D;52883;51.094;5.880;2022-11-20T05:21:05;3.09;118.99
66102;HTU21D;52883;51.094;5.880;2022-11-20T05:23:32;3.14;118.99
66102;HTU21D;52883;51.094;5.880;2022-11-20T05:25:59;3.16;118.99
66102;HTU21D;52883;51.094;5.880;2022-11-20T05:28:27;3.19;118.99
66102;HTU21D;52883;51.094;5.880;2022-11-20T05:30:53;3.19;118.99
66102;HTU21D;52883;51.094;5.880;2022-11-20T05:33:19;3.19;118.99
66102;HTU21D;52883;51.094;5.880;2022-11-20T05:35:45;3.18;118.99
66102;HTU21D;52883;51.094;5.880;2022-11-20T05:38:14;3.19;118.99
66102;HTU21D;52883;51.094;5.880;2022-11-20T05:40:40;3.20;118.99
66102;HTU21D;52883;51.094;5.880;2022-11-20T05:43:06;3.21;118.99
66102;HTU21D;52883;51.094;5.880;2022-11-20T05:45:32;3.25;118.99
66102;HTU21D;52883;51.094;5.880;2022-11-20T05:47:58;3.28;118.99
66102;HTU21D;52883;51.094;5.880;2022-11-20T05:50:26;3.30;118.99
66102;HTU21D;52883;51.094;5.880;2022-11-20T05:52:52;3.31;118.99
66102;HTU21D;52883;51.094;5.880;2022-11-20T05:55:17;3.30;118.99
66102;HTU21D;52883;51.094;5.880;2022-11-20T05:57:45;3.26;118.99
66102;HTU21D;52883;51.094;5.880;2022-11-20T06:00:14;3.27;118.99
66102;HTU21D;52883;51.094;5.880;2022-11-20T06:02:40;3.27;118.99
66102;HTU21D;52883;51.094;5.880;2022-11-20T06:05:06;3.30;118.99
66102;HTU21D;52883;51.094;5.880;2022-11-20T06:07:32;3.30;118.99
66102;HTU21D;52883;51.094;5.880;2022-11-20T06:09:57;3.35;118.99
66102;HTU21D;52883;51.094;5.880;2022-11-20T06:12:23;3.36;118.99
66102;HTU21D;52883;51.094;5.880;2022-11-20T06:14:49;3.36;118.99
66102;HTU21D;52883;51.094;5.880;2022-11-20T06:17:14;3.36;118.99
66102;HTU21D;52883;51.094;5.880;2022-11-20T06:19:40;3.36;118.99
66102;HTU21D;52883;51.094;5.880;2022-11-20T06:22:05;3.39;118.99
66102;HTU21D;52883;51.094;5.880;2022-11-20T06:24:34;3.38;118.99
66102;HTU21D;52883;51.094;5.880;2022-11-20T06:27:00;3.40;118.99
66102;HTU21D;52883;51.094;5.880;2022-11-20T06:29:25;3.42;118.99
66102;HTU21D;52883;51.094;5.880;2022-11-20T06:31:52;3.42;118.99
66102;HTU21D;52883;51.094;5.880;2022-11-20T06:34:18;3.46;118.99
66102;HTU21D;52883;51.094;5.880;2022-11-20T06:36:44;3.46;118.99
66102;HTU21D;52883;51.094;5.880;2022-11-20T06:39:09;3.48;118.99
66102;HTU21D;52883;51.094;5.880;2022-11-20T06:41:35;3.50;118.99
66102;HTU21D;52883;51.094;5.880;2022-11-20T06:44:01;3.52;118.99
66102;HTU21D;52883;51.094;5.880;2022-11-20T06:46:26;3.54;118.99
66102;HTU21D;52883;51.094;5.880;2022-11-20T06:48:52;3.56;118.99
66102;HTU21D;52883;51.094;5.880;2022-11-20T06:51:18;3.53;118.99
66102;HTU21D;52883;51.094;5.880;2022-11-20T06:53:44;3.54;118.99
66102;HTU21D;52883;51.094;5.880;2022-11-20T06:56:14;3.56;118.99
66102;HTU21D;52883;51.094;5.880;2022-11-20T06:58:40;3.57;118.99
66102;HTU21D;52883;51.094;5.880;2022-11-20T07:01:10;3.61;118.99
66102;HTU21D;52883;51.094;5.880;2022-11-20T07:03:42;3.63;118.99
66102;HTU21D;52883;51.094;5.880;2022-11-20T07:06:08;3.65;118.99
66102;HTU21D;52883;51.094;5.880;2022-11-20T07:08:34;3.68;118.99
66102;HTU21D;52883;51.094;5.880;2022-11-20T07:11:03;3.68;118.99
66102;HTU21D;52883;51.094;5.880;2022-11-20T07:13:29;3.70;118.99
66102;HTU21D;52883;51.094;5.880;2022-11-20T07:16:02;3.74;118.99
66102;HTU21D;52883;51.094;5.880;2022-11-20T07:18:28;3.77;118.99
66102;HTU21D;52883;51.094;5.880;2022-11-20T07:20:54;3.82;118.99
66102;HTU21D;52883;51.094;5.880;2022-11-20T07:23:19;3.85;118.99
66102;HTU21D;52883;51.094;5.880;2022-11-20T07:25:45;3.88;118.99
66102;HTU21D;52883;51.094;5.880;2022-11-20T07:28:10;3.93;118.99
66102;HTU21D;52883;51.094;5.880;2022-11-20T07:30:39;3.95;118.99
66102;HTU21D;52883;51.094;5.880;2022-11-20T07:33:04;3.99;118.99
66102;HTU21D;52883;51.094;5.880;2022-11-20T07:35:30;4.01;118.99
66102;HTU21D;52883;51.094;5.880;2022-11-20T07:37:56;4.07;118.99
66102;HTU21D;52883;51.094;5.880;2022-11-20T07:40:22;4.09;118.99
66102;HTU21D;52883;51.094;5.880;2022-11-20T07:42:48;4.15;118.99
66102;HTU21D;52883;51.094;5.880;2022-11-20T07:45:14;4.14;118.99
66102;HTU21D;52883;51.094;5.880;2022-11-20T07:47:40;4.15;118.99
66102;HTU21D;52883;51.094;5.880;2022-11-20T07:50:06;4.16;118.99
66102;HTU21D;52883;51.094;5.880;2022-11-20T07:52:32;4.17;118.99
66102;HTU21D;52883;51.094;5.880;2022-11-20T07:55:04;4.24;118.99
66102;HTU21D;52883;51.094;5.880;2022-11-20T07:57:30;4.33;118.99
66102;HTU21D;52883;51.094;5.880;2022-11-20T07:59:56;4.42;118.99
66102;HTU21D;52883;51.094;5.880;2022-11-20T08:02:22;4.53;118.99
66102;HTU21D;52883;51.094;5.880;2022-11-20T08:04:47;4.62;118.99
66102;HTU21D;52883;51.094;5.880;2022-11-20T08:07:13;4.68;118.99
66102;HTU21D;52883;51.094;5.880;2022-11-20T08:09:39;4.74;118.99
66102;HTU21D;52883;51.094;5.880;2022-11-20T08:12:05;4.79;118.99
66102;HTU21D;52883;51.094;5.880;2022-11-20T08:14:49;4.79;118.99
66102;HTU21D;52883;51.094;5.880;2022-11-20T08:17:15;4.74;118.99
66102;HTU21D;52883;51.094;5.880;2022-11-20T08:19:40;4.71;118.99
66102;HTU21D;52883;51.094;5.880;2022-11-20T08:22:06;4.67;118.99
66102;HTU21D;52883;51.094;5.880;2022-11-20T08:24:32;4.67;118.99
66102;HTU21D;52883;51.094;5.880;2022-11-20T08:26:59;4.73;118.99
66102;HTU21D;52883;51.094;5.880;2022-11-20T08:29:26;4.74;118.99
66102;HTU21D;52883;51.094;5.880;2022-11-20T08:31:52;4.74;118.99
66102;HTU21D;52883;51.094;5.880;2022-11-20T08:34:18;4.84;118.99
66102;HTU21D;52883;51.094;5.880;2022-11-20T08:36:43;4.94;118.99
66102;HTU21D;52883;51.094;5.880;2022-11-20T08:39:12;5.00;118.99
66102;HTU21D;52883;51.094;5.880;2022-11-20T08:41:38;5.08;118.99
66102;HTU21D;52883;51.094;5.880;2022-11-20T08:44:06;5.27;118.99
66102;HTU21D;52883;51.094;5.880;2022-11-20T08:46:35;5.47;118.99
66102;HTU21D;52883;51.094;5.880;2022-11-20T08:49:06;5.56;118.99
66102;HTU21D;52883;51.094;5.880;2022-11-20T08:51:32;5.64;118.99
66102;HTU21D;52883;51.094;5.880;2022-11-20T08:53:58;5.68;118.99
66102;HTU21D;52883;51.094;5.880;2022-11-20T08:56:24;5.64;118.99
66102;HTU21D;52883;51.094;5.880;2022-11-20T08:58:51;5.56;118.99
66102;HTU21D;52883;51.094;5.880;2022-11-20T09:01:18;5.43;118.99
66102;HTU21D;52883;51.094;5.880;2022-11-20T09:03:45;5.42;118.99
66102;HTU21D;52883;51.094;5.880;2022-11-20T09:06:14;5.41;118.99
66102;HTU21D;52883;51.094;5.880;2022-11-20T09:08:43;5.45;118.99
66102;HTU21D;52883;51.094;5.880;2022-11-20T09:11:09;5.48;118.99
66102;HTU21D;52883;51.094;5.880;2022-11-20T09:13:36;5.50;118.99
66102;HTU21D;52883;51.094;5.880;2022-11-20T09:16:07;5.54;118.99
66102;HTU21D;52883;51.094;5.880;2022-11-20T09:18:35;5.64;118.99
66102;HTU21D;52883;51.094;5.880;2022-11-20T09:21:11;5.77;118.99
66102;HTU21D;52883;51.094;5.880;2022-11-20T09:23:40;5.83;118.99
66102;HTU21D;52883;51.094;5.880;2022-11-20T09:26:14;5.96;118.99
66102;HTU21D;52883;51.094;5.880;2022-11-20T09:28:40;6.06;118.99
66102;HTU21D;52883;51.094;5.880;2022-11-20T09:31:12;6.09;118.99
66102;HTU21D;52883;51.094;5.880;2022-11-20T09:33:40;6.26;118.99
66102;HTU21D;52883;51.094;5.880;2022-11-20T09:36:06;6.42;118.99
66102;HTU21D;52883;51.094;5.880;2022-11-20T09:38:32;6.56;118.99
66102;HTU21D;52883;51.094;5.880;2022-11-20T09:41:06;6.71;118.99
66102;HTU21D;52883;51.094;5.880;2022-11-20T09:50:28;6.53;118.99
66102;HTU21D;52883;51.094;5.880;2022-11-20T09:56:14;6.35;118.99
66102;HTU21D;52883;51.094;5.880;2022-11-20T09:58:50;6.35;118.99
66102;HTU21D;52883;51.094;5.880;2022-11-20T10:01:19;6.33;118.99
66102;HTU21D;52883;51.094;5.880;2022-11-20T10:03:57;6.36;118.99
66102;HTU21D;52883;51.094;5.880;2022-11-20T10:06:33;6.48;118.99
66102;HTU21D;52883;51.094;5.880;2022-11-20T10:09:21;6.45;118.99
66102;HTU21D;52883;51.094;5.880;2022-11-20T10:17:33;6.35;118.99
66102;HTU21D;52883;51.094;5.880;2022-11-20T10:26:16;6.44;118.99
66102;HTU21D;52883;51.094;5.880;2022-11-20T10:31:39;6.46;118.99
66102;HTU21D;52883;51.094;5.880;2022-11-20T10:34:28;6.50;118.99
66102;HTU21D;52883;51.094;5.880;2022-11-20T10:37:02;6.64;118.99
66102;HTU21D;52883;51.094;5.880;2022-11-20T10:39:54;6.80;118.99
66102;HTU21D;52883;51.094;5.880;2022-11-20T10:42:35;6.96;118.99
66102;HTU21D;52883;51.094;5.880;2022-11-20T10:50:36;7.10;118.99
66102;HTU21D;52883;51.094;5.880;2022-11-20T11:00:14;7.26;118.99
66102;HTU21D;52883;51.094;5.880;2022-11-20T11:03:02;7.16;118.99
66102;HTU21D;52883;51.094;5.880;2022-11-20T11:05:54;7.19;118.99
66102;HTU21D;52883;51.094;5.880;2022-11-20T11:08:22;7.18;118.99
66102;HTU21D;52883;51.094;5.880;2022-11-20T11:10:57;7.13;118.99
66102;HTU21D;52883;51.094;5.880;2022-11-20T11:13:29;7.15;118.99
66102;HTU21D;52883;51.094;5.880;2022-11-20T11:15:56;7.10;118.99
66102;HTU21D;52883;51.094;5.880;2022-11-20T11:18:34;7.09;118.99
66102;HTU21D;52883;51.094;5.880;2022-11-20T11:21:03;7.04;118.99
66102;HTU21D;52883;51.094;5.880;2022-11-20T11:23:33;7.02;118.99
66102;HTU21D;52883;51.094;5.880;2022-11-20T11:26:03;7.03;118.99
66102;HTU21D;52883;51.094;5.880;2022-11-20T11:28:29;7.10;118.99
66102;HTU21D;52883;51.094;5.880;2022-11-20T11:30:55;7.16;118.99
66102;HTU21D;52883;51.094;5.880;2022-11-20T11:33:24;7.18;118.99
66102;HTU21D;52883;51.094;5.880;2022-11-20T11:35:55;7.15;118.99
66102;HTU21D;52883;51.094;5.880;2022-11-20T11:38:32;7.12;118.99
66102;HTU21D;52883;51.094;5.880;2022-11-20T11:41:01;7.18;118.99
66102;HTU21D;52883;51.094;5.880;2022-11-20T11:43:32;7.20;118.99
66102;HTU21D;52883;51.094;5.880;2022-11-20T11:54:56;7.08;118.99
66102;HTU21D;52883;51.094;5.880;2022-11-20T11:57:32;7.04;118.99
66102;HTU21D;52883;51.094;5.880;2022-11-20T12:00:16;7.10;118.99
66102;HTU21D;52883;51.094;5.880;2022-11-20T12:05:36;7.29;118.99
66102;HTU21D;52883;51.094;5.880;2022-11-20T12:08:17;7.38;118.99
66102;HTU21D;52883;51.094;5.880;2022-11-20T12:10:57;7.38;118.99
66102;HTU21D;52883;51.094;5.880;2022-11-20T12:13:44;7.38;118.99
66102;HTU21D;52883;51.094;5.880;2022-11-20T12:16:24;7.38;118.99
66102;HTU21D;52883;51.094;5.880;2022-11-20T12:18:52;7.41;118.99
66102;HTU21D;52883;51.094;5.880;2022-11-20T12:21:31;7.47;118.99
66102;HTU21D;52883;51.094;5.880;2022-11-20T12:24:42;7.55;118.99
66102;HTU21D;52883;51.094;5.880;2022-11-20T12:27:12;7.63;118.99
66102;HTU21D;52883;51.094;5.880;2022-11-20T12:30:05;7.81;118.99
66102;HTU21D;52883;51.094;5.880;2022-11-20T12:41:13;8.22;118.99
66102;HTU21D;52883;51.094;5.880;2022-11-20T12:47:42;8.46;118.99
66102;HTU21D;52883;51.094;5.880;2022-11-20T12:52:57;8.48;118.99
66102;HTU21D;52883;51.094;5.880;2022-11-20T12:58:30;8.41;118.99
66102;HTU21D;52883;51.094;5.880;2022-11-20T13:01:31;8.35;118.99
66102;HTU21D;52883;51.094;5.880;2022-11-20T13:07:14;8.38;118.99
66102;HTU21D;52883;51.094;5.880;2022-11-20T13:09:50;8.42;118.99
66102;HTU21D;52883;51.094;5.880;2022-11-20T13:12:44;8.49;118.99
66102;HTU21D;52883;51.094;5.880;2022-11-20T13:16:06;8.49;118.99
66102;HTU21D;52883;51.094;5.880;2022-11-20T13:18:23;8.48;118.99
66102;HTU21D;52883;51.094;5.880;2022-11-20T13:20:49;8.45;118.99
66102;HTU21D;52883;51.094;5.880;2022-11-20T13:23:26;8.49;118.99
66102;HTU21D;52883;51.094;5.880;2022-11-20T13:26:14;8.44;118.99
66102;HTU21D;52883;51.094;5.880;2022-11-20T13:28:40;8.44;118.99
66102;HTU21D;52883;51.094;5.880;2022-11-20T13:31:33;8.41;118.99
66102;HTU21D;52883;51.094;5.880;2022-11-20T13:34:03;8.37;118.99
66102;HTU21D;52883;51.094;5.880;2022-11-20T13:36:30;8.35;118.99
66102;HTU21D;52883;51.094;5.880;2022-11-20T13:38:58;8.32;118.99
66102;HTU21D;52883;51.094;5.880;2022-11-20T13:41:28;8.34;118.99
66102;HTU21D;52883;51.094;5.880;2022-11-20T13:46:45;8.22;118.99
66102;HTU21D;52883;51.094;5.880;2022-11-20T13:49:25;8.20;118.99
66102;HTU21D;52883;51.094;5.880;2022-11-20T13:55:19;8.09;118.99
66102;HTU21D;52883;51.094;5.880;2022-11-20T13:57:57;8.01;118.99
66102;HTU21D;52883;51.094;5.880;2022-11-20T14:00:26;7.96;118.99
66102;HTU21D;52883;51.094;5.880;2022-11-20T14:03:09;7.92;118.99
66102;HTU21D;52883;51.094;5.880;2022-11-20T14:05:50;7.84;118.99
66102;HTU21D;52883;51.094;5.880;2022-11-20T14:08:59;7.75;118.99
66102;HTU21D;52883;51.094;5.880;2022-11-20T14:11:26;7.65;118.99
66102;HTU21D;52883;51.094;5.880;2022-11-20T14:13:56;7.50;118.99
66102;HTU21D;52883;51.094;5.880;2022-11-20T14:16:24;7.45;118.99
66102;HTU21D;52883;51.094;5.880;2022-11-20T14:18:50;7.41;118.99
66102;HTU21D;52883;51.094;5.880;2022-11-20T14:21:24;7.38;118.99
66102;HTU21D;52883;51.094;5.880;2022-11-20T14:23:53;7.34;118.99
66102;HTU21D;52883;51.094;5.880;2022-11-20T14:26:22;7.31;118.99
66102;HTU21D;52883;51.094;5.880;2022-11-20T14:28:50;7.26;118.99
66102;HTU21D;52883;51.094;5.880;2022-11-20T14:31:25;7.28;118.99
66102;HTU21D;52883;51.094;5.880;2022-11-20T14:33:54;7.20;118.99
66102;HTU21D;52883;51.094;5.880;2022-11-20T14:36:23;7.16;118.99
66102;HTU21D;52883;51.094;5.880;2022-11-20T14:38:51;7.15;118.99
66102;HTU21D;52883;51.094;5.880;2022-11-20T14:41:20;7.11;118.99
66102;HTU21D;52883;51.094;5.880;2022-11-20T14:43:57;7.10;118.99
66102;HTU21D;52883;51.094;5.880;2022-11-20T14:46:27;7.10;118.99
66102;HTU21D;52883;51.094;5.880;2022-11-20T14:48:57;7.07;118.99
66102;HTU21D;52883;51.094;5.880;2022-11-20T14:51:35;7.08;118.99
66102;HTU21D;52883;51.094;5.880;2022-11-20T14:54:20;7.10;118.99
66102;HTU21D;52883;51.094;5.880;2022-11-20T14:56:55;7.07;118.99
66102;HTU21D;52883;51.094;5.880;2022-11-20T14:59:26;7.04;118.99
66102;HTU21D;52883;51.094;5.880;2022-11-20T15:01:59;7.04;118.99
66102;HTU21D;52883;51.094;5.880;2022-11-20T15:04:25;7.02;118.99
66102;HTU21D;52883;51.094;5.880;2022-11-20T15:06:54;7.03;118.99
66102;HTU21D;52883;51.094;5.880;2022-11-20T15:09:23;7.03;118.99
66102;HTU21D;52883;51.094;5.880;2022-11-20T15:11:58;7.01;118.99
66102;HTU21D;52883;51.094;5.880;2022-11-20T15:14:27;7.01;118.99
66102;HTU21D;52883;51.094;5.880;2022-11-20T15:16:55;7.01;118.99
66102;HTU21D;52883;51.094;5.880;2022-11-20T15:19:28;7.05;118.99
66102;HTU21D;52883;51.094;5.880;2022-11-20T15:21:54;7.10;118.99
66102;HTU21D;52883;51.094;5.880;2022-11-20T15:24:20;7.10;118.99
66102;HTU21D;52883;51.094;5.880;2022-11-20T15:26:48;7.07;118.99
66102;HTU21D;52883;51.094;5.880;2022-11-20T15:29:16;7.04;118.99
66102;HTU21D;52883;51.094;5.880;2022-11-20T15:31:49;7.05;118.99
66102;HTU21D;52883;51.094;5.880;2022-11-20T15:34:16;7.07;118.99
66102;HTU21D;52883;51.094;5.880;2022-11-20T15:36:48;7.10;118.99
66102;HTU21D;52883;51.094;5.880;2022-11-20T15:39:14;7.09;118.99
66102;HTU21D;52883;51.094;5.880;2022-11-20T15:41:40;7.09;118.99
66102;HTU21D;52883;51.094;5.880;2022-11-20T15:44:06;7.07;118.99
66102;HTU21D;52883;51.094;5.880;2022-11-20T15:46:38;7.04;118.99
66102;HTU21D;52883;51.094;5.880;2022-11-20T15:49:06;7.05;118.99
66102;HTU21D;52883;51.094;5.880;2022-11-20T15:51:39;7.02;118.99
66102;HTU21D;52883;51.094;5.880;2022-11-20T15:54:21;7.02;118.99
66102;HTU21D;52883;51.094;5.880;2022-11-20T15:56:50;6.99;118.99
66102;HTU21D;52883;51.094;5.880;2022-11-20T15:59:19;6.99;118.99
66102;HTU21D;52883;51.094;5.880;2022-11-20T16:01:45;6.95;118.99
66102;HTU21D;52883;51.094;5.880;2022-11-20T16:04:16;6.95;118.99
66102;HTU21D;52883;51.094;5.880;2022-11-20T16:06:42;6.97;118.99
66102;HTU21D;52883;51.094;5.880;2022-11-20T16:09:08;6.98;118.99
66102;HTU21D;52883;51.094;5.880;2022-11-20T16:11:34;6.98;118.99
66102;HTU21D;52883;51.094;5.880;2022-11-20T16:14:04;6.99;118.99
66102;HTU21D;52883;51.094;5.880;2022-11-20T16:16:49;7.00;118.99
66102;HTU21D;52883;51.094;5.880;2022-11-20T16:19:15;7.02;118.99
66102;HTU21D;52883;51.094;5.880;2022-11-20T16:21:41;7.02;118.99
66102;HTU21D;52883;51.094;5.880;2022-11-20T16:24:10;7.03;118.99
66102;HTU21D;52883;51.094;5.880;2022-11-20T16:26:38;7.07;118.99
66102;HTU21D;52883;51.094;5.880;2022-11-20T16:29:05;7.07;118.99
66102;HTU21D;52883;51.094;5.880;2022-11-20T16:31:33;7.08;118.99
66102;HTU21D;52883;51.094;5.880;2022-11-20T16:34:02;7.12;118.99
66102;HTU21D;52883;51.094;5.880;2022-11-20T16:36:29;7.12;118.99
66102;HTU21D;52883;51.094;5.880;2022-11-20T16:38:57;7.14;118.99
66102;HTU21D;52883;51.094;5.880;2022-11-20T16:41:25;7.16;118.99
66102;HTU21D;52883;51.094;5.880;2022-11-20T16:43:56;7.20;118.99
66102;HTU21D;52883;51.094;5.880;2022-11-20T16:46:27;7.23;118.99
66102;HTU21D;52883;51.094;5.880;2022-11-20T16:49:01;7.25;118.99
66102;HTU21D;52883;51.094;5.880;2022-11-20T16:51:31;7.27;118.99
66102;HTU21D;52883;51.094;5.880;2022-11-20T16:54:01;7.29;118.99